Faxinal do Soturno, Brazil
Current Conditions -  °F | °C
As of 8:15 PM on Saturday 20 Dec 2014 (Local Time) from SBSM Reporting Station
Thunderstorm Thunderstorm  
Wind Chill: 68°   Ceiling: 8000
Heat Index: 68°   Visibility: 4mi
Dew Point: 64°   Wind: 5mph
Humidity: 88%   Direction: 230°SW
Pressure: 29.71"   Gusts: NA
Location:  29.57°S, 53.44°W
Report Text: SBSM 202215Z 23004KT 130V300 7000 -TSRA FEW013 FEW030CB OVC08020/18 Q1006
Loading
Personal Weather Stations






























Interactive Weather Map New forecast layout! Learn more

10-Day Weather Forecast

Advertisements
Track Severe Weather on mobile